sensor_id;sensor_type;location;lat;lon;timestamp;pressure;altitude;pressure_sealevel;temperature;humidity
57442;BME280;43284;47.042;15.498;2023-01-27T00:02:22;97128.97;;;-0.85;90.49
57442;BME280;43284;47.042;15.498;2023-01-27T00:04:48;97123.84;;;-0.83;91.22
57442;BME280;43284;47.042;15.498;2023-01-27T00:07:13;97123.81;;;-0.86;90.99
57442;BME280;43284;47.042;15.498;2023-01-27T00:09:39;97119.53;;;-0.84;91.17
57442;BME280;43284;47.042;15.498;2023-01-27T00:12:06;97120.38;;;-0.79;90.76
57442;BME280;43284;47.042;15.498;2023-01-27T00:14:49;97121.25;;;-0.81;90.14
57442;BME280;43284;47.042;15.498;2023-01-27T00:17:15;97121.28;;;-0.83;90.21
57442;BME280;43284;47.042;15.498;2023-01-27T00:19:40;97125.56;;;-0.85;90.54
57442;BME280;43284;47.042;15.498;2023-01-27T00:22:08;97123.81;;;-0.86;90.82
57442;BME280;43284;47.042;15.498;2023-01-27T00:24:52;97121.25;;;-0.86;90.32
57442;BME280;43284;47.042;15.498;2023-01-27T00:27:17;97117.84;;;-0.87;90.32
57442;BME280;43284;47.042;15.498;2023-01-27T00:29:43;97113.56;;;-0.88;90.38
57442;BME280;43284;47.042;15.498;2023-01-27T00:32:08;97113.56;;;-0.88;90.45
57442;BME280;43284;47.042;15.498;2023-01-27T00:34:52;97117.00;;;-0.87;90.41
57442;BME280;43284;47.042;15.498;2023-01-27T00:37:18;97111.03;;;-0.89;90.53
57442;BME280;43284;47.042;15.498;2023-01-27T00:39:45;97114.44;;;-0.89;90.56
57442;BME280;43284;47.042;15.498;2023-01-27T00:42:10;97113.59;;;-0.89;90.76
57442;BME280;43284;47.042;15.498;2023-01-27T00:44:36;97107.59;;;-0.93;90.86
57442;BME280;43284;47.042;15.498;2023-01-27T00:47:01;97111.03;;;-0.91;91.78
57442;BME280;43284;47.042;15.498;2023-01-27T00:49:27;97118.75;;;-0.97;91.36
57442;BME280;43284;47.042;15.498;2023-01-27T00:51:52;97116.19;;;-0.95;91.09
57442;BME280;43284;47.042;15.498;2023-01-27T00:54:19;97114.47;;;-1.01;90.60
57442;BME280;43284;47.042;15.498;2023-01-27T00:56:44;97123.03;;;-0.96;91.82
57442;BME280;43284;47.042;15.498;2023-01-27T00:59:09;97115.31;;;-0.97;91.33
57442;BME280;43284;47.042;15.498;2023-01-27T01:01:35;97122.16;;;-0.95;91.60
57442;BME280;43284;47.042;15.498;2023-01-27T01:04:01;97120.47;;;-0.96;92.04
57442;BME280;43284;47.042;15.498;2023-01-27T01:06:27;97128.16;;;-0.96;91.97
57442;BME280;43284;47.042;15.498;2023-01-27T01:08:54;97122.16;;;-0.95;92.21
57442;BME280;43284;47.042;15.498;2023-01-27T01:11:20;97122.16;;;-1.01;91.77
57442;BME280;43284;47.042;15.498;2023-01-27T01:13:46;97126.47;;;-1.00;92.08
57442;BME280;43284;47.042;15.498;2023-01-27T01:16:13;97125.63;;;-1.00;92.26
57442;BME280;43284;47.042;15.498;2023-01-27T01:18:39;97123.91;;;-1.00;92.05
57442;BME280;43284;47.042;15.498;2023-01-27T01:21:05;97125.59;;;-0.97;92.15
57442;BME280;43284;47.042;15.498;2023-01-27T01:23:31;97123.88;;;-0.97;92.30
57442;BME280;43284;47.042;15.498;2023-01-27T01:25:57;97119.63;;;-0.98;92.63
57442;BME280;43284;47.042;15.498;2023-01-27T01:28:22;97121.31;;;-0.94;92.52
57442;BME280;43284;47.042;15.498;2023-01-27T01:30:48;97119.59;;;-0.96;92.15
57442;BME280;43284;47.042;15.498;2023-01-27T01:33:13;97121.31;;;-0.97;92.56
57442;BME280;43284;47.042;15.498;2023-01-27T01:35:39;97121.31;;;-1.01;92.14
57442;BME280;43284;47.042;15.498;2023-01-27T01:38:04;97122.16;;;-1.01;92.13
57442;BME280;43284;47.042;15.498;2023-01-27T01:40:30;97117.91;;;-1.00;92.53
57442;BME280;43284;47.042;15.498;2023-01-27T01:42:57;97117.06;;;-1.04;91.95
57442;BME280;43284;47.042;15.498;2023-01-27T01:48:17;97110.22;;;-1.02;91.64
57442;BME280;43284;47.042;15.498;2023-01-27T01:51:28;97105.09;;;-1.02;91.27
57442;BME280;43284;47.042;15.498;2023-01-27T01:53:41;97099.09;;;-1.01;90.72
57442;BME280;43284;47.042;15.498;2023-01-27T01:56:12;97098.22;;;-1.01;90.91
57442;BME280;43284;47.042;15.498;2023-01-27T01:58:39;97101.66;;;-1.06;90.52
57442;BME280;43284;47.042;15.498;2023-01-27T02:01:05;97103.38;;;-1.08;90.69
57442;BME280;43284;47.042;15.498;2023-01-27T02:03:31;97105.06;;;-1.05;91.42
57442;BME280;43284;47.042;15.498;2023-01-27T02:05:58;97101.69;;;-1.02;91.59
57442;BME280;43284;47.042;15.498;2023-01-27T02:08:33;97103.38;;;-1.01;91.95
57442;BME280;43284;47.042;15.498;2023-01-27T02:11:00;97097.38;;;-1.02;91.87
57442;BME280;43284;47.042;15.498;2023-01-27T02:13:26;97088.81;;;-1.01;92.62
57442;BME280;43284;47.042;15.498;2023-01-27T02:15:51;97093.94;;;-1.01;92.58
57442;BME280;43284;47.042;15.498;2023-01-27T02:18:18;97091.41;;;-1.04;92.54
57442;BME280;43284;47.042;15.498;2023-01-27T02:20:51;97082.00;;;-1.10;91.95
57442;BME280;43284;47.042;15.498;2023-01-27T02:25:54;97078.59;;;-1.12;91.56
57442;BME280;43284;47.042;15.498;2023-01-27T02:28:21;97076.88;;;-1.10;91.93
57442;BME280;43284;47.042;15.498;2023-01-27T02:30:50;97074.31;;;-1.08;92.02
57442;BME280;43284;47.042;15.498;2023-01-27T02:33:15;97080.31;;;-1.08;92.20
57442;BME280;43284;47.042;15.498;2023-01-27T02:36:03;97081.16;;;-1.10;92.05
57442;BME280;43284;47.042;15.498;2023-01-27T02:38:28;97075.19;;;-1.09;92.03
57442;BME280;43284;47.042;15.498;2023-01-27T02:40:56;97082.88;;;-1.05;91.70
57442;BME280;43284;47.042;15.498;2023-01-27T02:43:23;97083.75;;;-1.07;91.84
57442;BME280;43284;47.042;15.498;2023-01-27T02:45:48;97094.88;;;-1.11;91.79
57442;BME280;43284;47.042;15.498;2023-01-27T02:48:14;97088.03;;;-1.15;91.91
57442;BME280;43284;47.042;15.498;2023-01-27T02:50:39;97080.31;;;-1.14;92.49
57442;BME280;43284;47.042;15.498;2023-01-27T02:53:05;97079.50;;;-1.17;92.16
57442;BME280;43284;47.042;15.498;2023-01-27T02:55:31;97089.75;;;-1.17;91.98
57442;BME280;43284;47.042;15.498;2023-01-27T02:57:57;97086.34;;;-1.18;91.97
57442;BME280;43284;47.042;15.498;2023-01-27T03:00:22;97080.31;;;-1.14;93.11
57442;BME280;43284;47.042;15.498;2023-01-27T03:02:47;97078.63;;;-1.15;92.86
57442;BME280;43284;47.042;15.498;2023-01-27T03:05:13;97079.47;;;-1.14;92.67
57442;BME280;43284;47.042;15.498;2023-01-27T03:07:39;97076.06;;;-1.13;92.90
57442;BME280;43284;47.042;15.498;2023-01-27T03:10:06;97074.34;;;-1.11;93.02
57442;BME280;43284;47.042;15.498;2023-01-27T03:12:31;97069.22;;;-1.14;92.58
57442;BME280;43284;47.042;15.498;2023-01-27T03:14:57;97066.69;;;-1.16;92.49
57442;BME280;43284;47.042;15.498;2023-01-27T03:17:40;97062.38;;;-1.12;93.50
57442;BME280;43284;47.042;15.498;2023-01-27T03:20:25;97058.97;;;-1.13;93.37
57442;BME280;43284;47.042;15.498;2023-01-27T03:22:50;97058.97;;;-1.11;93.83
57442;BME280;43284;47.042;15.498;2023-01-27T03:25:16;97055.53;;;-1.16;93.16
57442;BME280;43284;47.042;15.498;2023-01-27T03:27:41;97058.97;;;-1.17;93.02
57442;BME280;43284;47.042;15.498;2023-01-27T03:30:07;97061.53;;;-1.19;93.62
57442;BME280;43284;47.042;15.498;2023-01-27T03:32:34;97054.69;;;-1.17;94.57
57442;BME280;43284;47.042;15.498;2023-01-27T03:34:59;97060.69;;;-1.21;94.07
57442;BME280;43284;47.042;15.498;2023-01-27T03:37:26;97054.69;;;-1.18;94.05
57442;BME280;43284;47.042;15.498;2023-01-27T03:40:11;97058.13;;;-1.21;93.68
57442;BME280;43284;47.042;15.498;2023-01-27T03:42:55;97056.44;;;-1.22;94.07
57442;BME280;43284;47.042;15.498;2023-01-27T03:45:40;97053.88;;;-1.22;94.04
57442;BME280;43284;47.042;15.498;2023-01-27T03:48:27;97058.13;;;-1.22;94.07
57442;BME280;43284;47.042;15.498;2023-01-27T03:50:55;97052.16;;;-1.21;94.42
57442;BME280;43284;47.042;15.498;2023-01-27T03:53:21;97056.41;;;-1.20;94.97
57442;BME280;43284;47.042;15.498;2023-01-27T03:55:46;97052.16;;;-1.20;95.43
57442;BME280;43284;47.042;15.498;2023-01-27T03:58:19;97052.16;;;-1.21;95.02
57442;BME280;43284;47.042;15.498;2023-01-27T04:00:48;97050.44;;;-1.19;95.75
57442;BME280;43284;47.042;15.498;2023-01-27T04:03:14;97054.69;;;-1.18;95.57
57442;BME280;43284;47.042;15.498;2023-01-27T04:06:01;97052.97;;;-1.16;95.94
57442;BME280;43284;47.042;15.498;2023-01-27T04:08:45;97055.56;;;-1.18;95.77
57442;BME280;43284;47.042;15.498;2023-01-27T04:11:10;97045.31;;;-1.19;95.53
57442;BME280;43284;47.042;15.498;2023-01-27T04:13:54;97041.03;;;-1.20;95.55
57442;BME280;43284;47.042;15.498;2023-01-27T04:16:20;97045.31;;;-1.21;95.79
57442;BME280;43284;47.042;15.498;2023-01-27T04:18:53;97041.03;;;-1.22;95.64
57442;BME280;43284;47.042;15.498;2023-01-27T04:21:18;97041.91;;;-1.25;95.36
57442;BME280;43284;47.042;15.498;2023-01-27T04:23:44;97041.91;;;-1.26;95.21
57442;BME280;43284;47.042;15.498;2023-01-27T04:26:09;97045.31;;;-1.21;95.27
57442;BME280;43284;47.042;15.498;2023-01-27T04:28:34;97041.91;;;-1.21;94.90
57442;BME280;43284;47.042;15.498;2023-01-27T04:31:01;97045.31;;;-1.27;94.29
57442;BME280;43284;47.042;15.498;2023-01-27T04:33:26;97045.31;;;-1.22;94.94
57442;BME280;43284;47.042;15.498;2023-01-27T04:35:52;97045.31;;;-1.24;94.39
57442;BME280;43284;47.042;15.498;2023-01-27T04:38:17;97049.63;;;-1.25;94.22
57442;BME280;43284;47.042;15.498;2023-01-27T04:40:42;97048.75;;;-1.23;94.34
57442;BME280;43284;47.042;15.498;2023-01-27T04:43:08;97048.75;;;-1.22;94.33
57442;BME280;43284;47.042;15.498;2023-01-27T04:45:34;97049.59;;;-1.21;94.42
57442;BME280;43284;47.042;15.498;2023-01-27T04:47:59;97045.31;;;-1.22;94.25
57442;BME280;43284;47.042;15.498;2023-01-27T04:50:24;97047.88;;;-1.22;94.39
57442;BME280;43284;47.042;15.498;2023-01-27T04:52:50;97051.28;;;-1.20;94.68
57442;BME280;43284;47.042;15.498;2023-01-27T04:55:15;97053.00;;;-1.21;94.47
57442;BME280;43284;47.042;15.498;2023-01-27T04:57:41;97058.97;;;-1.17;95.16
57442;BME280;43284;47.042;15.498;2023-01-27T05:00:06;97055.56;;;-1.18;95.10
57442;BME280;43284;47.042;15.498;2023-01-27T05:02:32;97056.41;;;-1.17;94.62
57442;BME280;43284;47.042;15.498;2023-01-27T05:04:57;97057.28;;;-1.21;94.31
57442;BME280;43284;47.042;15.498;2023-01-27T05:07:23;97059.84;;;-1.23;94.45
57442;BME280;43284;47.042;15.498;2023-01-27T05:09:48;97052.16;;;-1.21;95.05
57442;BME280;43284;47.042;15.498;2023-01-27T05:12:14;97050.47;;;-1.24;94.90
57442;BME280;43284;47.042;15.498;2023-01-27T05:14:40;97053.88;;;-1.22;95.22
57442;BME280;43284;47.042;15.498;2023-01-27T05:17:05;97053.88;;;-1.22;95.23
57442;BME280;43284;47.042;15.498;2023-01-27T05:19:30;97053.00;;;-1.21;95.68
57442;BME280;43284;47.042;15.498;2023-01-27T05:21:56;97056.44;;;-1.22;95.24
57442;BME280;43284;47.042;15.498;2023-01-27T05:24:21;97058.97;;;-1.20;95.84
57442;BME280;43284;47.042;15.498;2023-01-27T05:26:46;97051.31;;;-1.25;95.64
57442;BME280;43284;47.042;15.498;2023-01-27T05:29:12;97056.44;;;-1.25;95.55
57442;BME280;43284;47.042;15.498;2023-01-27T05:31:37;97057.31;;;-1.26;95.19
57442;BME280;43284;47.042;15.498;2023-01-27T05:34:02;97060.72;;;-1.29;94.84
57442;BME280;43284;47.042;15.498;2023-01-27T05:36:28;97062.44;;;-1.28;95.19
57442;BME280;43284;47.042;15.498;2023-01-27T05:38:54;97069.28;;;-1.27;94.97
57442;BME280;43284;47.042;15.498;2023-01-27T05:41:20;97062.44;;;-1.26;95.01
57442;BME280;43284;47.042;15.498;2023-01-27T05:43:46;97066.72;;;-1.28;94.64
57442;BME280;43284;47.042;15.498;2023-01-27T05:46:13;97063.28;;;-1.26;95.29
57442;BME280;43284;47.042;15.498;2023-01-27T05:48:40;97061.56;;;-1.23;95.55
57442;BME280;43284;47.042;15.498;2023-01-27T05:51:06;97064.13;;;-1.23;95.43
57442;BME280;43284;47.042;15.498;2023-01-27T05:53:32;97064.13;;;-1.25;95.07
57442;BME280;43284;47.042;15.498;2023-01-27T05:55:58;97065.84;;;-1.26;95.20
57442;BME280;43284;47.042;15.498;2023-01-27T05:58:23;97068.41;;;-1.24;95.83
57442;BME280;43284;47.042;15.498;2023-01-27T06:00:49;97076.09;;;-1.27;95.51
57442;BME280;43284;47.042;15.498;2023-01-27T06:03:15;97065.84;;;-1.27;95.66
57442;BME280;43284;47.042;15.498;2023-01-27T06:05:50;97072.69;;;-1.34;94.76
57442;BME280;43284;47.042;15.498;2023-01-27T06:08:16;97077.00;;;-1.39;94.90
57442;BME280;43284;47.042;15.498;2023-01-27T06:10:41;97072.72;;;-1.38;95.24
57442;BME280;43284;47.042;15.498;2023-01-27T06:13:06;97074.44;;;-1.43;94.85
57442;BME280;43284;47.042;15.498;2023-01-27T06:15:32;97075.31;;;-1.46;95.16
57442;BME280;43284;47.042;15.498;2023-01-27T06:17:57;97081.28;;;-1.41;95.56
57442;BME280;43284;47.042;15.498;2023-01-27T06:20:22;97075.31;;;-1.46;94.93
57442;BME280;43284;47.042;15.498;2023-01-27T06:22:48;97081.28;;;-1.47;95.11
57442;BME280;43284;47.042;15.498;2023-01-27T06:25:14;97074.47;;;-1.50;95.35
57442;BME280;43284;47.042;15.498;2023-01-27T06:27:40;97080.44;;;-1.48;95.17
57442;BME280;43284;47.042;15.498;2023-01-27T06:30:06;97076.16;;;-1.46;95.31
57442;BME280;43284;47.042;15.498;2023-01-27T06:32:33;97076.16;;;-1.44;95.59
57442;BME280;43284;47.042;15.498;2023-01-27T06:34:59;97074.47;;;-1.48;94.91
57442;BME280;43284;47.042;15.498;2023-01-27T06:37:27;97072.78;;;-1.51;95.05
57442;BME280;43284;47.042;15.498;2023-01-27T06:39:52;97064.19;;;-1.51;94.85
57442;BME280;43284;47.042;15.498;2023-01-27T06:42:18;97074.47;;;-1.48;95.25
57442;BME280;43284;47.042;15.498;2023-01-27T06:44:43;97065.91;;;-1.47;95.34
57442;BME280;43284;47.042;15.498;2023-01-27T06:47:08;97059.09;;;-1.53;95.66
57442;BME280;43284;47.042;15.498;2023-01-27T06:49:34;97070.19;;;-1.52;95.37
57442;BME280;43284;47.042;15.498;2023-01-27T06:51:59;97077.88;;;-1.48;95.76
57442;BME280;43284;47.042;15.498;2023-01-27T06:54:24;97071.03;;;-1.46;96.05
57442;BME280;43284;47.042;15.498;2023-01-27T06:56:50;97074.44;;;-1.42;96.58
57442;BME280;43284;47.042;15.498;2023-01-27T06:59:15;97079.59;;;-1.42;96.66
57442;BME280;43284;47.042;15.498;2023-01-27T07:01:41;97079.56;;;-1.39;96.71
57442;BME280;43284;47.042;15.498;2023-01-27T07:04:06;97075.31;;;-1.40;96.41
57442;BME280;43284;47.042;15.498;2023-01-27T07:06:31;97082.13;;;-1.40;96.10
57442;BME280;43284;47.042;15.498;2023-01-27T07:08:57;97082.13;;;-1.40;95.83
57442;BME280;43284;47.042;15.498;2023-01-27T07:11:22;97079.56;;;-1.39;96.42
57442;BME280;43284;47.042;15.498;2023-01-27T07:13:49;97082.09;;;-1.36;96.41
57442;BME280;43284;47.042;15.498;2023-01-27T07:16:14;97082.97;;;-1.38;95.89
57442;BME280;43284;47.042;15.498;2023-01-27T07:18:40;97090.66;;;-1.38;95.89
57442;BME280;43284;47.042;15.498;2023-01-27T07:21:05;97085.56;;;-1.40;95.44
57442;BME280;43284;47.042;15.498;2023-01-27T07:23:31;97083.00;;;-1.41;95.75
57442;BME280;43284;47.042;15.498;2023-01-27T07:25:56;97088.09;;;-1.38;95.82
57442;BME280;43284;47.042;15.498;2023-01-27T07:28:22;97088.97;;;-1.39;95.24
57442;BME280;43284;47.042;15.498;2023-01-27T07:30:47;97088.97;;;-1.41;95.16
57442;BME280;43284;47.042;15.498;2023-01-27T07:33:12;97094.94;;;-1.40;95.15
57442;BME280;43284;47.042;15.498;2023-01-27T07:35:39;97094.09;;;-1.39;95.51
57442;BME280;43284;47.042;15.498;2023-01-27T07:38:06;97095.78;;;-1.37;95.58
57442;BME280;43284;47.042;15.498;2023-01-27T07:40:31;97099.22;;;-1.33;95.98
57442;BME280;43284;47.042;15.498;2023-01-27T07:42:57;97104.31;;;-1.32;95.77
57442;BME280;43284;47.042;15.498;2023-01-27T07:45:23;97104.34;;;-1.33;95.56
57442;BME280;43284;47.042;15.498;2023-01-27T07:47:48;97104.31;;;-1.32;95.64
57442;BME280;43284;47.042;15.498;2023-01-27T07:50:14;97100.03;;;-1.28;95.81
57442;BME280;43284;47.042;15.498;2023-01-27T07:52:39;97096.63;;;-1.30;95.61
57442;BME280;43284;47.042;15.498;2023-01-27T07:55:05;97108.59;;;-1.28;95.69
57442;BME280;43284;47.042;15.498;2023-01-27T07:57:30;97106.84;;;-1.22;95.76
57442;BME280;43284;47.042;15.498;2023-01-27T07:59:55;97108.56;;;-1.20;95.91
57442;BME280;43284;47.042;15.498;2023-01-27T08:02:21;97106.84;;;-1.15;95.95
57442;BME280;43284;47.042;15.498;2023-01-27T08:04:48;97116.22;;;-1.12;95.69
57442;BME280;43284;47.042;15.498;2023-01-27T08:07:14;97107.72;;;-1.28;94.75
57442;BME280;43284;47.042;15.498;2023-01-27T08:09:39;97111.16;;;-1.25;94.42
57442;BME280;43284;47.042;15.498;2023-01-27T08:12:04;97115.41;;;-1.19;95.26
57442;BME280;43284;47.042;15.498;2023-01-27T08:14:30;97113.66;;;-1.14;95.03
57442;BME280;43284;47.042;15.498;2023-01-27T08:16:55;97118.81;;;-1.18;94.08
57442;BME280;43284;47.042;15.498;2023-01-27T08:19:20;97116.22;;;-1.14;94.32
57442;BME280;43284;47.042;15.498;2023-01-27T08:21:46;97111.97;;;-1.16;93.78
57442;BME280;43284;47.042;15.498;2023-01-27T08:24:11;97125.63;;;-1.13;93.69
57442;BME280;43284;47.042;15.498;2023-01-27T08:26:37;97123.94;;;-1.09;94.20
57442;BME280;43284;47.042;15.498;2023-01-27T08:29:02;97135.03;;;-1.07;93.56
57442;BME280;43284;47.042;15.498;2023-01-27T08:31:27;97135.03;;;-1.07;93.17
57442;BME280;43284;47.042;15.498;2023-01-27T08:33:53;97130.72;;;-1.05;92.75
57442;BME280;43284;47.042;15.498;2023-01-27T08:36:18;97142.72;;;-1.04;92.44
57442;BME280;43284;47.042;15.498;2023-01-27T08:38:44;97136.75;;;-1.05;92.18
57442;BME280;43284;47.042;15.498;2023-01-27T08:41:11;97138.44;;;-1.00;92.60
57442;BME280;43284;47.042;15.498;2023-01-27T08:43:37;97140.13;;;-0.98;92.45
57442;BME280;43284;47.042;15.498;2023-01-27T08:46:03;97136.69;;;-0.97;92.46
57442;BME280;43284;47.042;15.498;2023-01-27T08:48:28;97132.41;;;-0.95;91.93
57442;BME280;43284;47.042;15.498;2023-01-27T08:50:55;97135.84;;;-0.91;91.80
57442;BME280;43284;47.042;15.498;2023-01-27T08:53:21;97135.00;;;-0.92;91.20
57442;BME280;43284;47.042;15.498;2023-01-27T08:55:47;97140.94;;;-0.88;91.27
57442;BME280;43284;47.042;15.498;2023-01-27T08:58:12;97134.94;;;-0.86;91.11
57442;BME280;43284;47.042;15.498;2023-01-27T09:00:37;97137.50;;;-0.86;90.64
57442;BME280;43284;47.042;15.498;2023-01-27T09:03:03;97144.34;;;-0.86;90.40
57442;BME280;43284;47.042;15.498;2023-01-27T09:05:28;97139.22;;;-0.88;90.53
57442;BME280;43284;47.042;15.498;2023-01-27T09:07:54;97146.91;;;-0.86;91.27
57442;BME280;43284;47.042;15.498;2023-01-27T09:10:19;97143.50;;;-0.85;90.97
57442;BME280;43284;47.042;15.498;2023-01-27T09:12:44;97145.22;;;-0.84;90.82
57442;BME280;43284;47.042;15.498;2023-01-27T09:15:11;97151.19;;;-0.84;91.68
57442;BME280;43284;47.042;15.498;2023-01-27T09:17:36;97158.00;;;-0.79;92.05
57442;BME280;43284;47.042;15.498;2023-01-27T09:20:02;97154.59;;;-0.78;92.07
57442;BME280;43284;47.042;15.498;2023-01-27T09:22:27;97156.31;;;-0.82;91.50
57442;BME280;43284;47.042;15.498;2023-01-27T09:24:53;97166.56;;;-0.77;92.58
57442;BME280;43284;47.042;15.498;2023-01-27T09:27:18;97172.53;;;-0.77;92.58
57442;BME280;43284;47.042;15.498;2023-01-27T09:29:43;97176.84;;;-0.76;92.24
57442;BME280;43284;47.042;15.498;2023-01-27T09:32:09;97164.81;;;-0.71;92.38
57442;BME280;43284;47.042;15.498;2023-01-27T09:34:37;97166.56;;;-0.74;91.30
57442;BME280;43284;47.042;15.498;2023-01-27T09:37:06;97163.13;;;-0.73;91.27
57442;BME280;43284;47.042;15.498;2023-01-27T09:39:33;97165.69;;;-0.69;91.28
57442;BME280;43284;47.042;15.498;2023-01-27T09:45:04;97161.41;;;-0.71;89.91
57442;BME280;43284;47.042;15.498;2023-01-27T09:50:21;97153.69;;;-0.65;90.56
57442;BME280;43284;47.042;15.498;2023-01-27T09:57:56;97155.31;;;-0.47;90.87
57442;BME280;43284;47.042;15.498;2023-01-27T10:03:07;97155.31;;;-0.47;89.26
57442;BME280;43284;47.042;15.498;2023-01-27T10:05:40;97140.81;;;-0.57;87.92
57442;BME280;43284;47.042;15.498;2023-01-27T10:26:48;97120.13;;;-0.31;84.81
57442;BME280;43284;47.042;15.498;2023-01-27T10:34:27;97117.38;;;-0.05;85.45
57442;BME280;43284;47.042;15.498;2023-01-27T10:41:56;97105.28;;;0.09;83.50
57442;BME280;43284;47.042;15.498;2023-01-27T10:44:36;97091.63;;;0.03;82.28
57442;BME280;43284;47.042;15.498;2023-01-27T10:50:05;97094.97;;;0.14;83.20
57442;BME280;43284;47.042;15.498;2023-01-27T10:52:35;97097.59;;;0.06;81.96
57442;BME280;43284;47.042;15.498;2023-01-27T10:55:05;97096.66;;;0.18;84.06
57442;BME280;43284;47.042;15.498;2023-01-27T10:57:43;97089.69;;;0.31;83.50
57442;BME280;43284;47.042;15.498;2023-01-27T11:00:20;97093.94;;;0.30;83.98
57442;BME280;43284;47.042;15.498;2023-01-27T11:02:56;97089.53;;;0.45;85.01
57442;BME280;43284;47.042;15.498;2023-01-27T11:05:34;97084.47;;;0.37;83.39
57442;BME280;43284;47.042;15.498;2023-01-27T11:08:04;97083.56;;;0.43;82.82
57442;BME280;43284;47.042;15.498;2023-01-27T11:10:35;97089.59;;;0.40;81.87
57442;BME280;43284;47.042;15.498;2023-01-27T11:13:03;97078.59;;;0.24;80.64
57442;BME280;43284;47.042;15.498;2023-01-27T11:15:32;97081.19;;;0.23;80.52
57442;BME280;43284;47.042;15.498;2023-01-27T11:20:28;97073.44;;;0.26;80.71
57442;BME280;43284;47.042;15.498;2023-01-27T11:30:30;97071.78;;;0.20;81.95
57442;BME280;43284;47.042;15.498;2023-01-27T11:35:58;97067.44;;;0.24;81.50
57442;BME280;43284;47.042;15.498;2023-01-27T11:38:23;97067.44;;;0.27;80.91
57442;BME280;43284;47.042;15.498;2023-01-27T11:40:49;97063.25;;;0.15;82.20
57442;BME280;43284;47.042;15.498;2023-01-27T11:43:20;97060.63;;;0.23;81.46
57442;BME280;43284;47.042;15.498;2023-01-27T11:45:47;97063.19;;;0.24;82.52
57442;BME280;43284;47.042;15.498;2023-01-27T11:48:15;97058.06;;;0.19;81.73
57442;BME280;43284;47.042;15.498;2023-01-27T11:50:41;97048.72;;;0.11;81.69
57442;BME280;43284;47.042;15.498;2023-01-27T11:55:46;97047.78;;;0.21;83.29
57442;BME280;43284;47.042;15.498;2023-01-27T11:58:26;97049.44;;;0.24;82.84
57442;BME280;43284;47.042;15.498;2023-01-27T12:03:27;97051.22;;;0.17;81.95
57442;BME280;43284;47.042;15.498;2023-01-27T12:05:55;97050.25;;;0.30;83.42
57442;BME280;43284;47.042;15.498;2023-01-27T12:08:38;97048.63;;;0.22;81.25
57442;BME280;43284;47.042;15.498;2023-01-27T12:11:23;97042.63;;;0.24;81.11
57442;BME280;43284;47.042;15.498;2023-01-27T12:13:50;97041.56;;;0.40;82.50
57442;BME280;43284;47.042;15.498;2023-01-27T12:16:16;97041.56;;;0.40;82.14
57442;BME280;43284;47.042;15.498;2023-01-27T12:18:50;97041.56;;;0.42;81.92
57442;BME280;43284;47.042;15.498;2023-01-27T12:21:17;97035.53;;;0.45;81.91
57442;BME280;43284;47.042;15.498;2023-01-27T12:23:47;97025.28;;;0.41;82.39
57442;BME280;43284;47.042;15.498;2023-01-27T12:26:14;97030.44;;;0.40;81.93
57442;BME280;43284;47.042;15.498;2023-01-27T12:31:12;97024.41;;;0.43;81.83
57442;BME280;43284;47.042;15.498;2023-01-27T12:33:39;97023.72;;;0.27;79.89
57442;BME280;43284;47.042;15.498;2023-01-27T12:36:10;97027.16;;;0.29;81.19
57442;BME280;43284;47.042;15.498;2023-01-27T12:38:37;97023.69;;;0.30;79.66
57442;BME280;43284;47.042;15.498;2023-01-27T12:41:08;97024.41;;;0.43;79.45
57442;BME280;43284;47.042;15.498;2023-01-27T12:43:50;97016.75;;;0.39;79.98
57442;BME280;43284;47.042;15.498;2023-01-27T12:46:20;97011.50;;;0.46;82.03
57442;BME280;43284;47.042;15.498;2023-01-27T12:48:49;97012.44;;;0.40;80.78
57442;BME280;43284;47.042;15.498;2023-01-27T12:51:16;97015.69;;;0.57;81.50
57442;BME280;43284;47.042;15.498;2023-01-27T12:53:43;97013.13;;;0.54;80.81
57442;BME280;43284;47.042;15.498;2023-01-27T12:56:12;97008.09;;;0.45;80.07
57442;BME280;43284;47.042;15.498;2023-01-27T13:01:20;97012.34;;;0.49;79.45
57442;BME280;43284;47.042;15.498;2023-01-27T13:03:48;97010.56;;;0.56;79.29
57442;BME280;43284;47.042;15.498;2023-01-27T13:06:15;97012.16;;;0.65;80.00
57442;BME280;43284;47.042;15.498;2023-01-27T13:08:41;97016.41;;;0.67;80.30
57442;BME280;43284;47.042;15.498;2023-01-27T13:11:07;97014.66;;;0.71;80.47
57442;BME280;43284;47.042;15.498;2023-01-27T13:13:33;97007.84;;;0.68;79.64
57442;BME280;43284;47.042;15.498;2023-01-27T13:18:33;96992.47;;;0.62;77.75
57442;BME280;43284;47.042;15.498;2023-01-27T13:23:33;96995.19;;;0.51;77.36
57442;BME280;43284;47.042;15.498;2023-01-27T13:28:48;96989.91;;;0.60;78.00
57442;BME280;43284;47.042;15.498;2023-01-27T13:31:18;97007.13;;;0.55;77.61
57442;BME280;43284;47.042;15.498;2023-01-27T13:33:46;97000.25;;;0.57;78.58
57442;BME280;43284;47.042;15.498;2023-01-27T13:36:31;96998.47;;;0.61;78.32
57442;BME280;43284;47.042;15.498;2023-01-27T13:39:16;97001.16;;;0.55;77.34
57442;BME280;43284;47.042;15.498;2023-01-27T13:47:02;96999.38;;;0.60;78.90
57442;BME280;43284;47.042;15.498;2023-01-27T13:49:39;97001.09;;;0.56;79.35
57442;BME280;43284;47.042;15.498;2023-01-27T13:52:07;97006.31;;;0.53;79.64
57442;BME280;43284;47.042;15.498;2023-01-27T13:54:34;97001.22;;;0.49;78.16
57442;BME280;43284;47.042;15.498;2023-01-27T13:57:10;97005.53;;;0.47;77.60
57442;BME280;43284;47.042;15.498;2023-01-27T13:59:49;97006.41;;;0.44;77.64
57442;BME280;43284;47.042;15.498;2023-01-27T14:02:37;97014.13;;;0.41;77.55
57442;BME280;43284;47.042;15.498;2023-01-27T14:07:46;97007.19;;;0.49;79.13
57442;BME280;43284;47.042;15.498;2023-01-27T14:17:42;97006.31;;;0.50;78.81
57442;BME280;43284;47.042;15.498;2023-01-27T14:22:41;97015.88;;;0.39;78.53
57442;BME280;43284;47.042;15.498;2023-01-27T14:27:39;97018.44;;;0.40;79.92
57442;BME280;43284;47.042;15.498;2023-01-27T14:30:14;97010.00;;;0.29;80.56
57442;BME280;43284;47.042;15.498;2023-01-27T14:40:20;97028.16;;;0.12;83.59
57442;BME280;43284;47.042;15.498;2023-01-27T14:42:59;97020.44;;;0.14;83.91
57442;BME280;43284;47.042;15.498;2023-01-27T14:45:31;97023.84;;;0.13;84.45
57442;BME280;43284;47.042;15.498;2023-01-27T14:50:44;97040.19;;;0.07;85.30